createdAt,value
2024-01-24T00:01:22.929Z,96843.97
2024-01-24T00:03:51.112Z,96839.72
2024-01-24T00:06:20.511Z,96839.50
2024-01-24T00:08:49.525Z,96833.69
2024-01-24T00:11:17.565Z,96842.44
2024-01-24T00:13:45.642Z,96845.66
2024-01-24T00:16:13.645Z,96837.88
2024-01-24T00:18:41.680Z,96837.75
2024-01-24T00:21:09.756Z,96847.69
2024-01-24T00:23:39.062Z,96858.69
2024-01-24T00:26:07.007Z,96855.25
2024-01-24T00:28:34.943Z,96847.09
2024-01-24T00:31:03.267Z,96836.56
2024-01-24T00:33:31.549Z,96837.00
2024-01-24T00:35:59.588Z,96825.25
2024-01-24T00:38:27.806Z,96813.75
2024-01-24T00:40:57.441Z,96813.22
2024-01-24T00:43:27.032Z,96827.84
2024-01-24T00:45:55.063Z,96818.41
2024-01-24T00:48:23.338Z,96817.03
2024-01-24T00:50:51.355Z,96818.88
2024-01-24T00:53:22.808Z,96813.81
2024-01-24T00:55:51.043Z,96820.66
2024-01-24T00:58:21.050Z,96816.16
2024-01-24T01:00:49.235Z,96827.47
2024-01-24T01:03:17.411Z,96827.94
2024-01-24T01:05:45.548Z,96821.94
2024-01-24T01:08:13.563Z,96806.50
2024-01-24T01:10:41.510Z,96788.97
2024-01-24T01:13:09.692Z,96804.09
2024-01-24T01:15:39.071Z,96801.16
2024-01-24T01:18:07.203Z,96793.97
2024-01-24T01:20:35.169Z,96793.53
2024-01-24T01:23:04.938Z,96780.84
2024-01-24T01:25:32.890Z,96767.53
2024-01-24T01:28:00.857Z,96781.75
2024-01-24T01:30:28.816Z,96770.75
2024-01-24T01:32:58.314Z,96761.84
2024-01-24T01:35:26.412Z,96754.94
2024-01-24T01:37:54.436Z,96763.28
2024-01-24T01:40:22.671Z,96766.03
2024-01-24T01:42:50.887Z,96752.28
2024-01-24T01:45:18.973Z,96760.19
2024-01-24T01:47:50.190Z,96758.34
2024-01-24T01:50:21.121Z,96761.78
2024-01-24T01:52:49.223Z,96749.25
2024-01-24T01:55:18.454Z,96752.72
2024-01-24T01:57:46.655Z,96755.13
2024-01-24T02:00:21.772Z,96747.38
2024-01-24T02:02:50.146Z,96752.72
2024-01-24T02:05:20.223Z,96740.13
2024-01-24T02:07:48.734Z,96746.31
2024-01-24T02:10:17.307Z,96732.94
2024-01-24T02:12:45.376Z,96735.22
2024-01-24T02:15:13.418Z,96743.56
2024-01-24T02:17:41.460Z,96736.84
2024-01-24T02:20:11.298Z,96745.34
2024-01-24T02:22:40.832Z,96726.69
2024-01-24T02:25:10.728Z,96717.50
2024-01-24T02:27:38.877Z,96735.75
2024-01-24T02:30:07.802Z,96722.19
2024-01-24T02:32:35.887Z,96722.53
2024-01-24T02:35:05.337Z,96722.63
2024-01-24T02:37:33.348Z,96719.38
2024-01-24T02:40:01.443Z,96711.53
2024-01-24T02:42:30.872Z,96722.47
2024-01-24T02:44:58.810Z,96736.84
2024-01-24T02:47:26.837Z,96729.09
2024-01-24T02:49:54.842Z,96733.34
2024-01-24T02:52:22.953Z,96728.31
2024-01-24T02:54:50.956Z,96728.31
2024-01-24T02:57:19.058Z,96704.00
2024-01-24T02:59:48.452Z,96696.50
2024-01-24T03:02:16.423Z,96695.34
2024-01-24T03:04:43.823Z,96687.75
2024-01-24T03:07:12.267Z,96686.22
2024-01-24T03:09:40.341Z,96672.47
2024-01-24T03:12:11.774Z,96666.00
2024-01-24T03:14:39.740Z,96674.00
2024-01-24T03:17:09.243Z,96679.84
2024-01-24T03:19:37.348Z,96669.19
2024-01-24T03:22:05.908Z,96667.75
2024-01-24T03:24:33.966Z,96670.25
2024-01-24T03:27:01.996Z,96676.09
2024-01-24T03:29:29.974Z,96679.09
2024-01-24T03:31:57.925Z,96680.13
2024-01-24T03:34:31.626Z,96683.16
2024-01-24T03:36:59.793Z,96682.25
2024-01-24T03:39:27.899Z,96690.19
2024-01-24T03:41:55.895Z,96684.03
2024-01-24T03:44:23.835Z,96691.50
2024-01-24T03:46:51.819Z,96690.84
2024-01-24T03:49:21.893Z,96696.81
2024-01-24T03:51:51.659Z,96699.56
2024-01-24T03:54:20.801Z,96702.75
2024-01-24T03:56:48.886Z,96707.47
2024-01-24T03:59:16.934Z,96710.13
2024-01-24T04:01:44.883Z,96711.03
2024-01-24T04:04:12.986Z,96692.03
2024-01-24T04:06:41.094Z,96682.59
2024-01-24T04:09:10.514Z,96689.75
2024-01-24T04:11:40.530Z,96685.72
2024-01-24T04:14:10.023Z,96697.44
2024-01-24T04:16:40.586Z,96674.31
2024-01-24T04:19:08.995Z,96682.91
2024-01-24T04:21:42.714Z,96681.00
2024-01-24T04:24:12.209Z,96687.22
2024-01-24T04:26:41.546Z,96687.38
2024-01-24T04:29:12.832Z,96708.25
2024-01-24T04:31:42.838Z,96705.59
2024-01-24T04:34:11.112Z,96703.69
2024-01-24T04:36:39.169Z,96694.72
2024-01-24T04:39:07.224Z,96694.34
2024-01-24T04:41:40.152Z,96705.16
2024-01-24T04:44:09.223Z,96716.97
2024-01-24T04:46:37.355Z,96725.69
2024-01-24T04:49:05.486Z,96724.22
2024-01-24T04:51:33.818Z,96717.63
2024-01-24T04:54:02.180Z,96704.31
2024-01-24T04:56:30.465Z,96701.78
2024-01-24T04:58:59.923Z,96704.72
2024-01-24T05:01:28.130Z,96700.88
2024-01-24T05:03:56.437Z,96684.44
2024-01-24T05:06:24.514Z,96692.03
2024-01-24T05:08:58.850Z,96690.13
2024-01-24T05:11:26.843Z,96697.25
2024-01-24T05:13:56.179Z,96692.59
2024-01-24T05:16:25.511Z,96680.56
2024-01-24T05:18:53.656Z,96684.91
2024-01-24T05:21:21.715Z,96683.38
2024-01-24T05:23:50.099Z,96679.53
2024-01-24T05:26:18.555Z,96686.41
2024-01-24T05:28:46.567Z,96675.81
2024-01-24T05:31:14.620Z,96665.88
2024-01-24T05:33:44.137Z,96674.13
2024-01-24T05:36:12.155Z,96669.94
2024-01-24T05:38:40.184Z,96652.34
2024-01-24T05:41:08.148Z,96646.41
2024-01-24T05:43:36.136Z,96660.31
2024-01-24T05:46:04.248Z,96665.81
2024-01-24T05:48:32.474Z,96667.06
2024-01-24T05:51:01.875Z,96662.03
2024-01-24T05:53:29.939Z,96664.06
2024-01-24T05:55:57.881Z,96658.19
2024-01-24T05:58:25.902Z,96658.94
2024-01-24T06:00:55.111Z,96655.97
2024-01-24T06:03:23.177Z,96648.94
2024-01-24T06:05:52.295Z,96648.16
2024-01-24T06:08:22.289Z,96642.44
2024-01-24T06:10:50.394Z,96637.34
2024-01-24T06:13:18.361Z,96650.47
2024-01-24T06:15:46.425Z,96648.63
2024-01-24T06:18:14.545Z,96633.25
2024-01-24T06:20:42.592Z,96602.97
2024-01-24T06:23:10.626Z,96620.03
2024-01-24T06:25:40.080Z,96633.88
2024-01-24T06:28:10.729Z,96623.31
2024-01-24T06:30:38.717Z,96611.13
2024-01-24T06:33:06.911Z,96594.97
2024-01-24T06:35:34.881Z,96589.56
2024-01-24T06:38:03.590Z,96568.63
2024-01-24T06:40:31.545Z,96593.63
2024-01-24T06:43:00.952Z,96600.34
2024-01-24T06:45:28.980Z,96600.34
2024-01-24T06:47:56.990Z,96594.09
2024-01-24T06:50:25.374Z,96611.97
2024-01-24T06:52:53.530Z,96626.19
2024-01-24T06:55:22.995Z,96624.22
2024-01-24T06:57:51.037Z,96642.41
2024-01-24T07:00:22.414Z,96628.25
2024-01-24T07:02:51.405Z,96622.28
2024-01-24T07:05:19.436Z,96610.00
2024-01-24T07:07:47.426Z,96630.59
2024-01-24T07:10:15.385Z,96622.69
2024-01-24T07:12:47.775Z,96604.88
2024-01-24T07:15:17.532Z,96607.66
2024-01-24T07:17:48.012Z,96604.38
2024-01-24T07:20:19.456Z,96607.09
2024-01-24T07:22:47.638Z,96618.16
2024-01-24T07:25:15.781Z,96620.91
2024-01-24T07:27:45.981Z,96610.66
2024-01-24T07:30:15.183Z,96616.88
2024-01-24T07:32:43.726Z,96614.91
2024-01-24T07:35:13.324Z,96612.16
2024-01-24T07:37:41.315Z,96596.28
2024-01-24T07:40:11.915Z,96594.47
2024-01-24T07:42:40.023Z,96581.13
2024-01-24T07:45:10.174Z,96591.25
2024-01-24T07:47:39.229Z,96585.47
2024-01-24T07:50:09.209Z,96573.63
2024-01-24T07:52:43.225Z,96579.94
2024-01-24T07:55:13.538Z,96577.63
2024-01-24T07:57:42.688Z,96579.19
2024-01-24T08:00:17.517Z,96553.22
2024-01-24T08:02:46.658Z,96572.34
2024-01-24T08:05:15.994Z,96556.69
2024-01-24T08:07:45.624Z,96556.34
2024-01-24T08:10:13.631Z,96580.53
2024-01-24T08:12:42.183Z,96596.50
2024-01-24T08:15:11.136Z,96570.84
2024-01-24T08:17:39.460Z,96583.97
2024-01-24T08:20:10.150Z,96589.56
2024-01-24T08:22:38.557Z,96584.81
2024-01-24T08:25:09.643Z,96565.09
2024-01-24T08:27:37.953Z,96575.34
2024-01-24T08:30:07.925Z,96557.94
2024-01-24T08:32:41.416Z,96561.94
2024-01-24T08:35:10.497Z,96561.19
2024-01-24T08:37:38.634Z,96561.19
2024-01-24T08:40:10.148Z,96564.75
2024-01-24T08:42:38.440Z,96583.31
2024-01-24T08:45:07.201Z,96586.53
2024-01-24T08:47:35.186Z,96597.25
2024-01-24T08:50:05.326Z,96581.09
2024-01-24T08:52:33.792Z,96601.22
2024-01-24T08:55:02.068Z,96597.69
2024-01-24T08:57:31.676Z,96594.47
2024-01-24T08:59:59.685Z,96607.19
2024-01-24T09:02:27.780Z,96607.13
2024-01-24T09:04:56.441Z,96592.88
2024-01-24T09:07:24.566Z,96573.94
2024-01-24T09:09:52.843Z,96584.94
2024-01-24T09:12:21.098Z,96589.69
2024-01-24T09:14:50.557Z,96591.22
2024-01-24T09:17:20.293Z,96599.13
2024-01-24T09:19:49.800Z,96596.31
2024-01-24T09:22:18.082Z,96590.41
2024-01-24T09:24:50.123Z,96596.34
2024-01-24T09:27:19.406Z,96587.69
2024-01-24T09:29:47.396Z,96599.53
2024-01-24T09:32:16.779Z,96598.34
2024-01-24T09:34:45.016Z,96591.28
2024-01-24T09:37:16.062Z,96613.41
2024-01-24T09:39:44.416Z,96617.75
2024-01-24T09:42:21.805Z,96626.91
2024-01-24T09:44:51.484Z,96617.78
2024-01-24T09:47:23.559Z,96614.66
2024-01-24T09:49:53.313Z,96633.25
2024-01-24T09:52:25.182Z,96642.81
2024-01-24T09:54:58.399Z,96651.59
2024-01-24T09:57:28.559Z,96653.59
2024-01-24T09:59:56.929Z,96649.75
2024-01-24T10:02:28.444Z,96631.16
2024-01-24T10:04:57.109Z,96647.78
2024-01-24T10:07:25.275Z,96640.69
2024-01-24T10:10:09.079Z,96620.91
2024-01-24T10:12:38.076Z,96614.13
2024-01-24T10:15:07.162Z,96610.19
2024-01-24T10:17:36.693Z,96625.16
2024-01-24T10:20:07.750Z,96620.78
2024-01-24T10:22:35.954Z,96633.75
2024-01-24T10:25:04.391Z,96618.25
2024-01-24T10:27:35.817Z,96630.91
2024-01-24T10:30:04.632Z,96619.78
2024-01-24T10:32:33.957Z,96609.47
2024-01-24T10:35:05.981Z,96612.69
2024-01-24T10:37:36.591Z,96626.13
2024-01-24T10:40:12.785Z,96610.81
2024-01-24T10:42:44.478Z,96616.28
2024-01-24T10:45:13.102Z,96619.84
2024-01-24T10:47:42.666Z,96613.53
2024-01-24T10:50:15.539Z,96603.63
2024-01-24T10:52:44.783Z,96605.56
2024-01-24T10:55:16.081Z,96605.22
2024-01-24T10:57:50.237Z,96597.47
2024-01-24T11:00:20.520Z,96592.69
2024-01-24T11:02:48.796Z,96587.94
2024-01-24T11:05:26.078Z,96572.66
2024-01-24T11:08:01.621Z,96584.53
2024-01-24T11:10:35.463Z,96561.56
2024-01-24T11:13:05.157Z,96561.50
2024-01-24T11:15:33.307Z,96574.19
2024-01-24T11:18:20.118Z,96578.13
2024-01-24T11:20:52.913Z,96584.47
2024-01-24T11:23:39.998Z,96577.31
2024-01-24T11:26:08.061Z,96590.09
2024-01-24T11:28:37.877Z,96597.19
2024-01-24T11:31:08.303Z,96595.97
2024-01-24T11:33:36.849Z,96605.81
2024-01-24T11:36:14.989Z,96594.47
2024-01-24T11:38:43.324Z,96577.78
2024-01-24T11:41:24.638Z,96579.41
2024-01-24T11:43:52.743Z,96573.03
2024-01-24T11:46:22.700Z,96596.09
2024-01-24T11:48:50.888Z,96602.81
2024-01-24T11:51:21.642Z,96603.25
2024-01-24T11:53:49.948Z,96611.16
2024-01-24T11:56:19.177Z,96613.56
2024-01-24T11:58:46.180Z,96597.66
2024-01-24T12:01:14.695Z,96598.50
2024-01-24T12:03:49.379Z,96592.50
2024-01-24T12:06:20.517Z,96607.22
2024-01-24T12:08:50.539Z,96596.09
2024-01-24T12:11:20.204Z,96601.63
2024-01-24T12:13:48.948Z,96606.41
2024-01-24T12:16:17.219Z,96609.56
2024-01-24T12:18:45.586Z,96607.94
2024-01-24T12:21:13.947Z,96611.91
2024-01-24T12:23:44.264Z,96624.19
2024-01-24T12:26:12.494Z,96617.03
2024-01-24T12:28:40.745Z,96636.03
2024-01-24T12:31:08.808Z,96648.31
2024-01-24T12:33:37.788Z,96642.34
2024-01-24T12:36:07.592Z,96629.31
2024-01-24T12:38:37.907Z,96635.66
2024-01-24T12:41:07.576Z,96635.25
2024-01-24T12:43:37.459Z,96606.28
2024-01-24T12:46:10.539Z,96618.97
2024-01-24T12:48:39.584Z,96629.28
2024-01-24T12:51:08.881Z,96626.06
2024-01-24T12:53:37.159Z,96638.72
2024-01-24T12:56:07.559Z,96632.38
2024-01-24T12:58:35.867Z,96630.78
2024-01-24T13:01:04.650Z,96625.66
2024-01-24T13:03:33.515Z,96622.88
2024-01-24T13:06:01.724Z,96618.56
2024-01-24T13:08:29.993Z,96641.13
2024-01-24T13:10:58.108Z,96641.94
2024-01-24T13:13:27.548Z,96640.75
2024-01-24T13:15:58.339Z,96637.97
2024-01-24T13:18:26.595Z,96633.22
2024-01-24T13:20:54.853Z,96647.88
2024-01-24T13:23:23.071Z,96633.22
2024-01-24T13:25:51.232Z,96615.41
2024-01-24T13:28:19.702Z,96645.13
2024-01-24T13:30:53.250Z,96633.25
2024-01-24T13:33:21.524Z,96628.13
2024-01-24T13:35:49.783Z,96620.59
2024-01-24T13:38:17.941Z,96634.06
2024-01-24T13:40:46.468Z,96633.28
2024-01-24T13:43:14.623Z,96633.25
2024-01-24T13:45:43.630Z,96647.53
2024-01-24T13:48:15.786Z,96639.19
2024-01-24T13:50:43.811Z,96649.50
2024-01-24T13:53:12.393Z,96654.66
2024-01-24T13:55:41.120Z,96660.16
2024-01-24T13:58:09.464Z,96662.56
2024-01-24T14:00:37.970Z,96661.75
2024-01-24T14:03:07.360Z,96672.81
2024-01-24T14:05:40.629Z,96675.94
2024-01-24T14:08:09.135Z,96678.72
2024-01-24T14:10:37.140Z,96687.47
2024-01-24T14:13:05.687Z,96700.53
2024-01-24T14:15:36.406Z,96701.28
2024-01-24T14:18:06.212Z,96707.22
2024-01-24T14:20:35.317Z,96719.13
2024-01-24T14:23:05.184Z,96708.84
2024-01-24T14:25:33.165Z,96710.78
2024-01-24T14:28:01.207Z,96705.28
2024-01-24T14:30:31.269Z,96717.13
2024-01-24T14:32:59.670Z,96704.44
2024-01-24T14:35:29.051Z,96692.56
2024-01-24T14:37:57.419Z,96702.94
2024-01-24T14:40:27.041Z,96712.88
2024-01-24T14:42:55.118Z,96700.59
2024-01-24T14:45:23.134Z,96704.53
2024-01-24T14:47:51.114Z,96713.56
2024-01-24T14:50:19.363Z,96719.88
2024-01-24T14:52:47.306Z,96721.81
2024-01-24T14:55:15.332Z,96729.75
2024-01-24T14:57:44.718Z,96737.63
2024-01-24T15:00:14.136Z,96740.78
2024-01-24T15:02:42.226Z,96728.78
2024-01-24T15:05:10.713Z,96749.28
2024-01-24T15:07:39.606Z,96764.28
2024-01-24T15:10:09.881Z,96753.53
2024-01-24T15:12:38.633Z,96758.59
2024-01-24T15:15:09.478Z,96769.59
2024-01-24T15:17:37.833Z,96764.44
2024-01-24T15:20:10.523Z,96778.94
2024-01-24T15:22:41.773Z,96788.69
2024-01-24T15:25:11.096Z,96777.59
2024-01-24T15:27:40.371Z,96795.41
2024-01-24T15:30:11.413Z,96800.03
2024-01-24T15:32:39.574Z,96801.94
2024-01-24T15:35:08.247Z,96808.59
2024-01-24T15:37:36.749Z,96815.63
2024-01-24T15:40:08.671Z,96841.16
2024-01-24T15:42:43.045Z,96832.47
2024-01-24T15:45:14.332Z,96832.78
2024-01-24T15:47:42.852Z,96834.25
2024-01-24T15:50:12.834Z,96828.97
2024-01-24T15:52:40.882Z,96833.25
2024-01-24T15:55:09.753Z,96846.81
2024-01-24T15:57:37.880Z,96847.88
2024-01-24T16:00:10.968Z,96861.72
2024-01-24T16:02:42.462Z,96855.28
2024-01-24T16:05:24.291Z,96856.34
2024-01-24T16:07:53.299Z,96866.81
2024-01-24T16:10:21.431Z,96870.81
2024-01-24T16:12:55.022Z,96863.06
2024-01-24T16:15:23.227Z,96880.38
2024-01-24T16:17:52.711Z,96877.81
2024-01-24T16:20:20.739Z,96883.28
2024-01-24T16:22:55.012Z,96885.56
2024-01-24T16:25:24.820Z,96892.69
2024-01-24T16:27:52.908Z,96901.09
2024-01-24T16:30:22.144Z,96899.56
2024-01-24T16:32:52.817Z,96912.28
2024-01-24T16:35:23.519Z,96919.53
2024-01-24T16:37:51.688Z,96927.69
2024-01-24T16:40:19.840Z,96926.88
2024-01-24T16:42:48.091Z,96927.13
2024-01-24T16:45:16.284Z,96927.56
2024-01-24T16:47:46.332Z,96929.03
2024-01-24T16:50:14.762Z,96923.50
2024-01-24T16:52:44.194Z,96937.75
2024-01-24T16:55:12.587Z,96933.22
2024-01-24T16:57:40.670Z,96922.19
2024-01-24T17:00:10.270Z,96937.47
2024-01-24T17:02:43.326Z,96936.72
2024-01-24T17:05:18.060Z,96940.53
2024-01-24T17:07:47.558Z,96935.41
2024-01-24T17:10:16.936Z,96945.91
2024-01-24T17:12:45.427Z,96938.94
2024-01-24T17:15:14.907Z,96955.03
2024-01-24T17:17:44.349Z,96962.47
2024-01-24T17:20:12.592Z,96942.84
2024-01-24T17:22:40.698Z,96963.53
2024-01-24T17:25:11.641Z,96961.44
2024-01-24T17:27:40.237Z,96966.38
2024-01-24T17:30:11.443Z,96956.03
2024-01-24T17:32:40.114Z,96959.97
2024-01-24T17:35:08.714Z,96963.88
2024-01-24T17:37:36.821Z,96960.69
2024-01-24T17:40:05.743Z,96964.81
2024-01-24T17:42:35.338Z,96970.31
2024-01-24T17:45:03.549Z,96960.50
2024-01-24T17:47:34.104Z,96977.56
2024-01-24T17:50:03.286Z,96981.94
2024-01-24T17:52:31.427Z,96982.50
2024-01-24T17:55:01.373Z,96994.78
2024-01-24T17:57:29.917Z,97000.31
2024-01-24T18:00:02.132Z,96997.13
2024-01-24T18:02:30.295Z,97010.94
2024-01-24T18:04:58.652Z,97014.75
2024-01-24T18:07:26.819Z,97027.16
2024-01-24T18:09:56.624Z,97029.19
2024-01-24T18:12:24.863Z,97030.72
2024-01-24T18:14:54.435Z,97031.56
2024-01-24T18:17:23.829Z,97029.91
2024-01-24T18:19:52.110Z,97033.47
2024-01-24T18:22:20.161Z,97029.66
2024-01-24T18:24:48.768Z,97019.09
2024-01-24T18:27:16.804Z,97009.53
2024-01-24T18:29:45.795Z,97015.41
2024-01-24T18:32:14.646Z,97025.81
2024-01-24T18:34:44.445Z,97023.88
2024-01-24T18:37:12.740Z,97027.66
2024-01-24T18:39:40.858Z,97022.34
2024-01-24T18:42:09.681Z,97027.94
2024-01-24T18:44:38.361Z,97023.94
2024-01-24T18:47:07.967Z,97026.19
2024-01-24T18:49:36.229Z,97026.63
2024-01-24T18:52:06.212Z,97029.91
2024-01-24T18:54:34.531Z,97019.75
2024-01-24T18:57:02.917Z,97029.84
2024-01-24T18:59:30.964Z,97032.16
2024-01-24T19:01:59.557Z,97030.41
2024-01-24T19:04:28.342Z,97039.81
2024-01-24T19:06:57.454Z,97032.44
2024-01-24T19:09:27.324Z,97040.88
2024-01-24T19:11:57.520Z,97053.50
2024-01-24T19:14:25.736Z,97035.44
2024-01-24T19:16:53.957Z,97043.25
2024-01-24T19:19:24.593Z,97050.59
2024-01-24T19:21:53.856Z,97042.94
2024-01-24T19:24:21.902Z,97061.34
2024-01-24T19:26:51.322Z,97039.97
2024-01-24T19:29:19.598Z,97052.09
2024-01-24T19:31:47.643Z,97047.50
2024-01-24T19:34:15.726Z,97057.25
2024-01-24T19:36:43.820Z,97061.72
2024-01-24T19:39:11.929Z,97048.03
2024-01-24T19:41:39.901Z,97046.50
2024-01-24T19:44:09.329Z,97044.09
2024-01-24T19:46:37.295Z,97049.81
2024-01-24T19:49:05.559Z,97053.34
2024-01-24T19:51:33.597Z,97060.47
2024-01-24T19:54:02.177Z,97027.94
2024-01-24T19:56:30.136Z,97051.00
2024-01-24T19:59:00.320Z,97024.78
2024-01-24T20:01:30.254Z,97044.47
2024-01-24T20:03:58.357Z,97030.50
2024-01-24T20:06:26.537Z,97036.88
2024-01-24T20:08:54.760Z,97030.63
2024-01-24T20:11:22.776Z,97034.94
2024-01-24T20:44:35.243Z,97026.91
2024-01-24T20:47:03.326Z,97034.72
2024-01-24T20:49:33.429Z,97044.19
2024-01-24T20:52:06.787Z,97027.44
2024-01-24T20:54:37.924Z,97048.78
2024-01-24T20:57:06.353Z,97046.47
2024-01-24T20:59:39.839Z,97052.06
2024-01-24T21:02:08.629Z,97058.22
2024-01-24T21:04:37.527Z,97052.00
2024-01-24T21:07:07.484Z,97048.78
2024-01-24T21:09:35.644Z,97041.16
2024-01-24T21:12:03.768Z,97056.25
2024-01-24T21:14:31.831Z,97045.25
2024-01-24T21:17:01.195Z,97063.72
2024-01-24T21:19:29.343Z,97064.78
2024-01-24T21:21:57.429Z,97053.78
2024-01-24T21:24:25.500Z,97060.16
2024-01-24T21:26:53.522Z,97044.25
2024-01-24T21:29:21.561Z,97040.59
2024-01-24T21:31:49.567Z,97049.66
2024-01-24T21:34:19.450Z,97040.50
2024-01-24T21:36:48.688Z,97036.34
2024-01-24T21:39:18.302Z,97023.56
2024-01-24T21:41:46.349Z,97031.53
2024-01-24T21:44:14.525Z,97037.59
2024-01-24T21:46:42.587Z,97037.59
2024-01-24T21:49:10.679Z,97029.22
2024-01-24T21:51:40.217Z,97044.69
2024-01-24T21:54:10.601Z,97032.75
2024-01-24T21:56:38.632Z,97038.00
2024-01-24T21:59:06.974Z,97029.66
2024-01-24T22:01:35.888Z,97037.59
2024-01-24T22:04:04.726Z,97039.88
2024-01-24T22:06:33.251Z,97050.00
2024-01-24T22:09:04.869Z,97049.28
2024-01-24T22:11:33.273Z,97039.72
2024-01-24T22:14:02.013Z,97041.75
2024-01-24T22:16:30.153Z,97036.16
2024-01-24T22:18:58.244Z,97045.84
2024-01-24T22:21:26.332Z,97047.50
2024-01-24T22:23:54.831Z,97053.81
2024-01-24T22:26:24.322Z,97058.53
2024-01-24T22:28:52.376Z,97068.66
2024-01-24T22:31:20.976Z,97065.41
2024-01-24T22:33:49.215Z,97051.25
2024-01-24T22:36:18.348Z,97064.25
2024-01-24T22:38:49.225Z,97064.13
2024-01-24T22:41:17.855Z,97065.66
2024-01-24T22:43:47.298Z,97062.25
2024-01-24T22:46:15.325Z,97067.50
2024-01-24T22:48:43.402Z,97063.88
2024-01-24T22:51:13.253Z,97072.13
2024-01-24T22:53:41.870Z,97067.50
2024-01-24T22:56:10.155Z,97073.28
2024-01-24T22:58:38.346Z,97063.94
2024-01-24T23:01:07.979Z,97066.97
2024-01-24T23:03:36.123Z,97077.88
2024-01-24T23:06:04.262Z,97080.38
2024-01-24T23:08:32.187Z,97066.97
2024-01-24T23:11:00.520Z,97058.34
2024-01-24T23:13:28.454Z,97059.75
2024-01-24T23:15:56.437Z,97066.88
2024-01-24T23:18:25.788Z,97058.34
2024-01-24T23:20:55.384Z,97070.53
2024-01-24T23:23:23.345Z,97077.16
2024-01-24T23:25:51.677Z,97076.47
2024-01-24T23:28:20.035Z,97065.34
2024-01-24T23:30:48.114Z,97083.13
2024-01-24T23:33:16.224Z,97066.44
2024-01-24T23:35:45.754Z,97071.97
2024-01-24T23:38:13.690Z,97073.03
2024-01-24T23:40:41.689Z,97069.75
2024-01-24T23:43:12.863Z,97063.25
2024-01-24T23:45:40.851Z,97071.84
2024-01-24T23:48:09.336Z,97071.75
2024-01-24T23:50:37.715Z,97069.38
2024-01-24T23:53:08.219Z,97070.84
2024-01-24T23:55:36.345Z,97073.03
2024-01-24T23:58:04.436Z,97066.34
